Ancram, New York
Current Conditions -  °F | °C
As of 4:27 AM on Wednesday 22 Oct 2014 (Local Time) from KPOU Reporting Station
Overcast Overcast  
Wind Chill: 11°   Ceiling: 1700
Heat Index: 11°   Visibility: 10mi
Dew Point:   Wind: 8mph
Humidity: 89%   Direction: 360°N
Pressure: 29.95"   Gusts: NA
Location:  42.05°N, 73.64°W
Report Text: KPOU 220827Z AUTO 36007KT 10SM SCT008 OVC017 11/09 A2995 RMK AO2 T01110094 TSNO
Loading
Personal Weather Stations






























Interactive Weather Map
Tropical Storm Tracking
New forecast layout! Learn more

10-Day Weather Forecast

Advertisements
Track Severe Weather on mobile